createdAt,value
2019-05-02T00:00:10.394Z,10.99
2019-05-02T00:01:10.569Z,10.92
2019-05-02T00:02:10.732Z,10.89
2019-05-02T00:03:10.901Z,10.90
2019-05-02T00:04:12.414Z,10.99
2019-05-02T00:05:11.238Z,10.81
2019-05-02T00:06:11.407Z,10.86
2019-05-02T00:07:14.452Z,10.89
2019-05-02T00:08:11.749Z,10.86
2019-05-02T00:09:11.925Z,10.82
2019-05-02T00:10:12.096Z,10.82
2019-05-02T00:11:12.269Z,10.82
2019-05-02T00:12:12.435Z,10.76
2019-05-02T00:13:12.604Z,10.75
2019-05-02T00:14:12.777Z,10.72
2019-05-02T00:15:12.946Z,10.81
2019-05-02T00:16:14.016Z,10.76
2019-05-02T00:17:13.297Z,10.69
2019-05-02T00:18:13.465Z,10.76
2019-05-02T00:19:14.267Z,10.59
2019-05-02T00:20:13.802Z,10.54
2019-05-02T00:21:13.970Z,10.64
2019-05-02T00:22:17.139Z,10.60
2019-05-02T00:23:14.297Z,10.68
2019-05-02T00:24:14.472Z,10.60
2019-05-02T00:25:16.058Z,10.60
2019-05-02T00:26:14.809Z,10.57
2019-05-02T00:27:14.982Z,10.59
2019-05-02T00:28:15.141Z,10.54
2019-05-02T00:29:19.011Z,10.54
2019-05-02T00:30:15.486Z,10.59
2019-05-02T00:31:15.663Z,10.56
2019-05-02T00:32:18.444Z,10.53
2019-05-02T00:33:16.002Z,10.59
2019-05-02T00:34:16.171Z,10.49
2019-05-02T00:35:16.340Z,10.37
2019-05-02T00:36:16.502Z,10.40
2019-05-02T00:37:18.969Z,10.38
2019-05-02T00:38:16.852Z,10.37
2019-05-02T00:39:17.008Z,10.31
2019-05-02T00:40:20.092Z,10.37
2019-05-02T00:41:17.349Z,10.35
2019-05-02T00:42:17.809Z,10.37
2019-05-02T00:43:17.677Z,10.37
2019-05-02T00:44:17.845Z,10.31
2019-05-02T00:45:18.815Z,10.38
2019-05-02T00:46:18.190Z,10.25
2019-05-02T00:47:18.361Z,10.33
2019-05-02T00:48:19.205Z,10.30
2019-05-02T00:49:18.719Z,10.30
2019-05-02T00:50:18.887Z,10.30
2019-05-02T00:51:22.055Z,10.33
2019-05-02T00:52:19.230Z,10.26
2019-05-02T00:53:19.393Z,10.23
2019-05-02T00:54:24.182Z,10.30
2019-05-02T00:55:19.743Z,10.23
2019-05-02T00:56:19.909Z,10.16
2019-05-02T00:57:21.745Z,10.16
2019-05-02T00:58:20.247Z,10.19
2019-05-02T00:59:20.418Z,10.10
2019-05-02T01:00:20.577Z,10.26
2019-05-02T01:01:24.309Z,10.30
2019-05-02T01:02:20.923Z,10.20
2019-05-02T01:03:21.092Z,10.30
2019-05-02T01:04:23.268Z,10.26
2019-05-02T01:05:21.430Z,10.28
2019-05-02T01:06:21.592Z,10.22
2019-05-02T01:07:25.430Z,10.30
2019-05-02T01:08:21.949Z,10.33
2019-05-02T01:10:56.761Z,10.26
2019-05-02T01:11:54.974Z,10.20
2019-05-02T01:12:55.227Z,10.01
2019-05-02T01:13:56.139Z,10.17
2019-05-02T01:14:55.480Z,10.22
2019-05-02T01:15:55.714Z,10.04
2019-05-02T01:16:56.254Z,10.04
2019-05-02T01:17:55.983Z,10.16
2019-05-02T01:18:56.184Z,10.10
2019-05-02T01:19:56.379Z,10.05
2019-05-02T01:20:58.071Z,10.13
2019-05-02T01:21:56.777Z,9.99
2019-05-02T01:22:56.978Z,9.99
2019-05-02T01:23:58.998Z,9.79
2019-05-02T01:24:57.379Z,9.77
2019-05-02T01:25:57.629Z,9.83
2019-05-02T01:26:59.834Z,9.82
2019-05-02T01:27:57.903Z,9.84
2019-05-02T01:28:58.097Z,9.84
2019-05-02T01:30:01.660Z,9.89
2019-05-02T01:30:58.498Z,9.86
2019-05-02T01:31:58.706Z,9.87
2019-05-02T01:33:04.294Z,9.95
2019-05-02T01:33:58.996Z,9.87
2019-05-02T01:34:59.060Z,9.76
2019-05-02T01:36:01.659Z,9.74
2019-05-02T01:36:59.373Z,9.77
2019-05-02T01:37:59.590Z,9.64
2019-05-02T01:39:02.871Z,9.58
2019-05-02T01:39:59.763Z,9.61
2019-05-02T01:40:59.956Z,9.56
2019-05-02T01:42:04.029Z,9.65
2019-05-02T01:43:00.274Z,9.62
2019-05-02T01:44:01.629Z,9.64
2019-05-02T01:45:00.727Z,9.66
2019-05-02T01:46:00.779Z,9.56
2019-05-02T01:47:00.974Z,9.54
2019-05-02T01:48:05.032Z,9.48
2019-05-02T01:49:01.351Z,9.56
2019-05-02T01:50:01.477Z,9.59
2019-05-02T01:51:04.663Z,9.48
2019-05-02T01:52:01.892Z,9.48
2019-05-02T01:53:02.082Z,9.47
2019-05-02T01:54:05.016Z,9.43
2019-05-02T01:55:02.464Z,9.43
2019-05-02T01:56:02.670Z,9.46
2019-05-02T01:57:03.950Z,9.56
2019-05-02T01:58:03.113Z,9.43
2019-05-02T01:59:03.205Z,9.46
2019-05-02T02:00:04.166Z,9.39
2019-05-02T02:01:03.567Z,9.65
2019-05-02T02:02:03.801Z,9.58
2019-05-02T02:03:04.185Z,9.55
2019-05-02T02:04:04.066Z,9.61
2019-05-02T02:05:04.272Z,9.61
2019-05-02T02:06:08.162Z,9.56
2019-05-02T02:07:04.673Z,9.55
2019-05-02T02:08:04.899Z,9.62
2019-05-02T02:09:08.369Z,9.59
2019-05-02T02:10:05.225Z,9.50
2019-05-02T02:11:05.304Z,9.47
2019-05-02T02:12:09.788Z,9.47
2019-05-02T02:13:05.665Z,9.51
2019-05-02T02:14:07.457Z,9.50
2019-05-02T02:15:06.075Z,9.54
2019-05-02T02:16:06.176Z,9.65
2019-05-02T02:17:10.099Z,9.54
2019-05-02T02:18:06.539Z,9.56
2019-05-02T02:19:06.809Z,9.66
2019-05-02T02:20:09.812Z,9.61
2019-05-02T02:21:07.080Z,9.59
2019-05-02T02:22:07.291Z,9.59
2019-05-02T02:23:10.260Z,9.58
2019-05-02T02:24:07.736Z,9.46
2019-05-02T02:25:07.814Z,9.41
2019-05-02T02:26:11.897Z,9.44
2019-05-02T02:27:08.203Z,9.43
2019-05-02T02:28:08.463Z,9.41
2019-05-02T02:29:09.387Z,9.39
2019-05-02T02:30:08.643Z,9.29
2019-05-02T02:31:08.856Z,9.18
2019-05-02T02:32:09.064Z,9.10
2019-05-02T02:33:09.874Z,9.31
2019-05-02T02:34:09.399Z,9.43
2019-05-02T02:35:10.114Z,9.31
2019-05-02T02:36:09.587Z,9.41
2019-05-02T02:37:12.454Z,9.39
2019-05-02T02:38:09.962Z,9.26
2019-05-02T02:39:14.026Z,9.21
2019-05-02T02:40:10.368Z,9.19
2019-05-02T02:41:13.218Z,9.23
2019-05-02T02:42:10.759Z,9.11
2019-05-02T02:43:32.328Z,9.19
2019-05-02T02:44:11.068Z,9.13
2019-05-02T02:45:12.964Z,9.11
2019-05-02T02:46:11.476Z,9.19
2019-05-02T02:47:18.279Z,9.21
2019-05-02T02:48:11.797Z,9.22
2019-05-02T02:49:14.042Z,9.11
2019-05-02T02:50:12.228Z,9.08
2019-05-02T02:51:22.197Z,9.21
2019-05-02T02:52:12.544Z,9.10
2019-05-02T02:53:18.334Z,9.02
2019-05-02T02:54:12.829Z,9.04
2019-05-02T02:55:16.126Z,9.04
2019-05-02T02:56:13.204Z,9.02
2019-05-02T02:57:25.672Z,9.06
2019-05-02T02:58:13.529Z,9.14
2019-05-02T02:59:19.349Z,9.11
2019-05-02T03:00:13.929Z,9.14
2019-05-02T03:01:14.161Z,9.16
2019-05-02T03:02:14.394Z,9.11
2019-05-02T03:03:14.471Z,9.10
2019-05-02T03:04:14.570Z,9.18
2019-05-02T03:05:18.606Z,9.23
2019-05-02T03:06:14.978Z,9.16
2019-05-02T03:07:24.667Z,9.18
2019-05-02T03:08:15.375Z,9.31
2019-05-02T03:09:20.258Z,9.22
2019-05-02T03:10:15.635Z,9.40
2019-05-02T03:11:22.305Z,9.44
2019-05-02T03:12:16.005Z,9.43
2019-05-02T03:13:21.628Z,9.50
2019-05-02T03:14:16.241Z,9.47
2019-05-02T03:15:20.950Z,9.44
2019-05-02T03:16:16.469Z,9.46
2019-05-02T03:17:20.285Z,9.48
2019-05-02T03:18:16.871Z,9.46
2019-05-02T03:19:21.447Z,9.34
2019-05-02T03:20:17.253Z,9.31
2019-05-02T03:21:20.337Z,9.29
2019-05-02T03:22:17.646Z,9.28
2019-05-02T03:23:21.695Z,9.19
2019-05-02T03:24:18.004Z,9.32
2019-05-02T03:25:25.093Z,9.34
2019-05-02T03:26:18.288Z,9.39
2019-05-02T03:27:18.501Z,9.41
2019-05-02T03:28:20.992Z,9.37
2019-05-02T03:29:18.812Z,9.43
2019-05-02T03:30:30.971Z,9.39
2019-05-02T03:31:25.458Z,9.47
2019-05-02T03:32:31.590Z,9.47
2019-05-02T03:33:19.517Z,9.54
2019-05-02T03:34:19.716Z,9.54
2019-05-02T03:35:40.238Z,9.56
2019-05-02T03:36:29.745Z,9.58
2019-05-02T03:37:20.242Z,9.59
2019-05-02T03:38:31.555Z,9.64
2019-05-02T03:39:20.527Z,9.58
2019-05-02T03:40:20.725Z,9.65
2019-05-02T03:41:23.453Z,9.61
2019-05-02T03:42:21.193Z,9.61
2019-05-02T03:43:25.910Z,9.62
2019-05-02T03:44:25.806Z,9.68
2019-05-02T03:45:21.597Z,9.61
2019-05-02T03:46:22.780Z,9.68
2019-05-02T03:47:21.861Z,9.62
2019-05-02T03:48:25.636Z,9.61
2019-05-02T03:49:22.249Z,9.62
2019-05-02T03:50:31.646Z,9.59
2019-05-02T03:51:25.221Z,9.54
2019-05-02T03:52:22.735Z,9.59
2019-05-02T03:53:25.254Z,9.59
2019-05-02T03:54:23.001Z,9.59
2019-05-02T03:55:23.818Z,9.55
2019-05-02T03:56:23.399Z,9.62
2019-05-02T03:57:31.707Z,9.59
2019-05-02T03:58:23.817Z,9.54
2019-05-02T03:59:37.083Z,9.61
2019-05-02T04:00:24.578Z,9.56
2019-05-02T04:01:24.309Z,9.47
2019-05-02T04:02:24.564Z,9.54
2019-05-02T04:03:24.718Z,9.56
2019-05-02T04:04:24.831Z,9.54
2019-05-02T04:05:24.940Z,9.64
2019-05-02T04:06:25.022Z,9.59
2019-05-02T04:07:25.208Z,9.54
2019-05-02T04:08:25.449Z,9.65
2019-05-02T04:09:25.535Z,9.58
2019-05-02T04:10:25.719Z,9.58
2019-05-02T04:11:26.015Z,9.64
2019-05-02T04:12:26.077Z,9.58
2019-05-02T04:13:30.024Z,9.58
2019-05-02T04:14:37.190Z,9.64
2019-05-02T04:15:28.788Z,9.54
2019-05-02T04:16:26.652Z,9.62
2019-05-02T04:17:28.892Z,9.64
2019-05-02T04:18:27.097Z,9.58
2019-05-02T04:19:28.563Z,9.59
2019-05-02T04:20:27.526Z,9.61
2019-05-02T04:21:27.782Z,9.59
2019-05-02T04:22:27.938Z,9.54
2019-05-02T04:23:29.859Z,9.54
2019-05-02T04:24:28.264Z,9.48
2019-05-02T04:25:34.045Z,9.44
2019-05-02T04:26:28.656Z,9.51
2019-05-02T04:27:34.165Z,9.47
2019-05-02T04:28:29.220Z,9.54
2019-05-02T04:29:31.099Z,9.46
2019-05-02T04:30:29.381Z,9.46
2019-05-02T04:31:31.540Z,9.55
2019-05-02T04:32:29.574Z,9.47
2019-05-02T04:33:34.695Z,9.43
2019-05-02T04:34:29.982Z,9.41
2019-05-02T04:35:34.816Z,9.54
2019-05-02T04:36:30.346Z,9.46
2019-05-02T04:37:34.427Z,9.56
2019-05-02T04:38:39.064Z,9.54
2019-05-02T04:39:30.763Z,9.55
2019-05-02T04:40:34.824Z,9.55
2019-05-02T04:41:34.148Z,9.48
2019-05-02T04:42:31.254Z,9.68
2019-05-02T04:43:31.362Z,9.55
2019-05-02T04:44:44.197Z,9.59
2019-05-02T04:45:50.915Z,9.59
2019-05-02T04:46:38.592Z,9.58
2019-05-02T04:47:35.282Z,9.54
2019-05-02T04:48:40.369Z,9.55
2019-05-02T04:49:38.610Z,9.50
2019-05-02T04:50:33.748Z,9.48
2019-05-02T04:51:33.599Z,9.54
2019-05-02T04:52:40.819Z,9.61
2019-05-02T04:53:40.888Z,9.65
2019-05-02T04:54:33.135Z,9.68
2019-05-02T04:55:33.622Z,9.69
2019-05-02T04:56:33.402Z,9.65
2019-05-02T04:57:36.937Z,9.62
2019-05-02T04:58:37.190Z,9.59
2019-05-02T04:59:34.012Z,9.64
2019-05-02T05:00:34.136Z,9.58
2019-05-02T05:01:43.375Z,9.54
2019-05-02T05:02:37.299Z,9.50
2019-05-02T05:03:34.751Z,9.56
2019-05-02T05:04:42.481Z,9.55
2019-05-02T05:05:37.781Z,9.51
2019-05-02T05:06:40.513Z,9.54
2019-05-02T05:07:43.541Z,9.68
2019-05-02T05:08:41.257Z,9.77
2019-05-02T05:09:39.734Z,9.65
2019-05-02T05:10:41.346Z,9.61
2019-05-02T05:11:38.136Z,9.62
2019-05-02T05:12:39.966Z,9.69
2019-05-02T05:13:38.885Z,9.74
2019-05-02T05:14:39.430Z,9.82
2019-05-02T05:15:44.549Z,9.82
2019-05-02T05:16:37.267Z,9.82
2019-05-02T05:17:37.562Z,9.69
2019-05-02T05:18:37.984Z,9.72
2019-05-02T05:19:37.621Z,9.82
2019-05-02T05:20:38.586Z,9.74
2019-05-02T05:21:40.619Z,9.77
2019-05-02T05:22:44.262Z,9.74
2019-05-02T05:23:38.407Z,9.84
2019-05-02T05:24:42.162Z,9.82
2019-05-02T05:25:38.313Z,9.84
2019-05-02T05:26:42.743Z,9.76
2019-05-02T05:27:38.680Z,9.74
2019-05-02T05:28:42.681Z,9.79
2019-05-02T05:29:39.072Z,9.86
2019-05-02T05:30:45.083Z,9.82
2019-05-02T05:31:39.207Z,9.83
2019-05-02T05:32:39.343Z,9.89
2019-05-02T05:33:40.131Z,9.72
2019-05-02T05:34:42.267Z,9.79
2019-05-02T05:35:43.183Z,9.91
2019-05-02T05:36:42.622Z,9.86
2019-05-02T05:37:43.194Z,9.82
2019-05-02T05:38:40.758Z,9.83
2019-05-02T05:39:43.165Z,9.91
2019-05-02T05:40:40.558Z,9.86
2019-05-02T05:41:42.810Z,9.89
2019-05-02T05:42:40.965Z,9.76
2019-05-02T05:43:44.906Z,9.77
2019-05-02T05:44:41.209Z,9.68
2019-05-02T05:45:51.174Z,9.69
2019-05-02T05:46:42.716Z,9.74
2019-05-02T05:47:41.627Z,9.77
2019-05-02T05:48:41.868Z,9.86
2019-05-02T05:49:42.053Z,9.86
2019-05-02T05:50:42.272Z,9.74
2019-05-02T05:51:42.461Z,9.87
2019-05-02T05:52:42.743Z,10.04
2019-05-02T05:53:42.865Z,9.79
2019-05-02T05:54:43.094Z,9.76
2019-05-02T05:55:43.185Z,9.79
2019-05-02T05:56:43.460Z,9.79
2019-05-02T05:57:43.523Z,9.83
2019-05-02T05:58:50.419Z,9.83
2019-05-02T05:59:43.951Z,9.87
2019-05-02T06:00:45.825Z,9.83
2019-05-02T06:01:44.411Z,9.77
2019-05-02T06:02:55.517Z,9.76
2019-05-02T06:03:45.102Z,9.82
2019-05-02T06:04:44.828Z,9.92
2019-05-02T06:05:45.073Z,10.05
2019-05-02T06:06:45.130Z,9.98
2019-05-02T06:07:47.307Z,9.92
2019-05-02T06:08:49.115Z,9.99
2019-05-02T06:09:45.590Z,10.05
2019-05-02T06:10:45.791Z,10.09
2019-05-02T06:11:45.996Z,10.16
2019-05-02T06:12:46.204Z,10.17
2019-05-02T06:13:48.698Z,10.25
2019-05-02T06:14:46.698Z,10.31
2019-05-02T06:15:46.747Z,10.46
2019-05-02T06:16:51.642Z,10.37
2019-05-02T06:17:47.166Z,10.40
2019-05-02T06:18:47.824Z,10.57
2019-05-02T06:19:48.284Z,10.48
2019-05-02T06:20:48.048Z,10.61
2019-05-02T06:21:48.057Z,10.63
2019-05-02T06:22:48.332Z,10.78
2019-05-02T06:23:48.513Z,10.71
2019-05-02T06:24:50.861Z,10.63
2019-05-02T06:25:49.851Z,10.71
2019-05-02T06:26:49.808Z,10.72
2019-05-02T06:27:48.817Z,10.71
2019-05-02T06:28:49.055Z,10.75
2019-05-02T06:29:51.182Z,10.97
2019-05-02T06:30:49.320Z,11.08
2019-05-02T06:31:49.502Z,11.14
2019-05-02T06:32:50.139Z,11.15
2019-05-02T06:33:49.952Z,11.15
2019-05-02T06:34:50.031Z,11.23
2019-05-02T06:35:51.886Z,11.25
2019-05-02T06:36:50.344Z,11.27
2019-05-02T06:37:51.972Z,11.19
2019-05-02T06:38:52.290Z,11.23
2019-05-02T06:39:50.883Z,11.36
2019-05-02T06:40:51.134Z,11.32
2019-05-02T06:41:51.990Z,11.44
2019-05-02T06:42:51.383Z,11.57
2019-05-02T06:43:51.570Z,11.54
2019-05-02T06:44:54.816Z,11.50
2019-05-02T06:45:51.883Z,11.55
2019-05-02T06:46:51.973Z,11.69
2019-05-02T06:47:52.087Z,11.72
2019-05-02T06:48:52.559Z,11.72
2019-05-02T06:49:56.068Z,11.81
2019-05-02T06:50:52.597Z,11.90
2019-05-02T06:51:56.240Z,12.02
2019-05-02T06:52:53.073Z,12.20
2019-05-02T06:53:53.262Z,12.37
2019-05-02T06:54:54.056Z,12.46
2019-05-02T06:55:53.543Z,12.45
2019-05-02T06:56:53.954Z,12.60
2019-05-02T06:57:57.093Z,12.65
2019-05-02T06:58:54.196Z,12.82
2019-05-02T06:59:55.010Z,12.76
2019-05-02T07:00:58.230Z,12.79
2019-05-02T07:01:57.352Z,12.83
2019-05-02T07:02:54.809Z,12.98
2019-05-02T07:03:54.961Z,12.85
2019-05-02T07:04:56.014Z,13.23
2019-05-02T07:05:58.842Z,13.33
2019-05-02T07:06:59.243Z,13.33
2019-05-02T07:07:55.768Z,13.35
2019-05-02T07:08:55.817Z,13.31
2019-05-02T07:09:55.985Z,13.16
2019-05-02T07:11:01.115Z,13.33
2019-05-02T07:11:58.572Z,13.47
2019-05-02T07:13:09.802Z,13.41
2019-05-02T07:13:56.898Z,13.38
2019-05-02T07:15:01.678Z,13.37
2019-05-02T07:15:57.444Z,13.53
2019-05-02T07:16:57.232Z,13.54
2019-05-02T07:17:57.450Z,13.63
2019-05-02T07:18:57.689Z,13.97
2019-05-02T07:19:58.921Z,14.20
2019-05-02T07:20:57.707Z,14.47
2019-05-02T07:21:58.496Z,14.45
2019-05-02T07:22:58.190Z,14.65
2019-05-02T07:23:59.066Z,14.72
2019-05-02T07:25:01.894Z,15.09
2019-05-02T07:26:00.379Z,15.55
2019-05-02T07:27:02.018Z,16.00
2019-05-02T07:28:04.649Z,16.21
2019-05-02T07:29:00.249Z,16.75
2019-05-02T07:30:00.447Z,17.24
2019-05-02T07:31:00.864Z,17.30
2019-05-02T07:32:01.688Z,17.59
2019-05-02T07:33:02.411Z,17.45
2019-05-02T07:33:59.944Z,17.36
2019-05-02T07:35:00.101Z,17.48
2019-05-02T07:36:01.464Z,17.70
2019-05-02T07:37:00.347Z,18.20
2019-05-02T07:38:00.473Z,18.58
2019-05-02T07:39:05.158Z,18.96
2019-05-02T07:40:00.847Z,18.95
2019-05-02T07:41:01.127Z,18.70
2019-05-02T07:42:05.799Z,18.66
2019-05-02T07:43:01.455Z,19.08
2019-05-02T07:44:04.360Z,19.04
2019-05-02T07:45:04.425Z,18.96
2019-05-02T07:46:01.779Z,19.36
2019-05-02T07:47:02.841Z,19.48
2019-05-02T07:48:02.047Z,19.73
2019-05-02T07:49:02.334Z,19.45
2019-05-02T07:50:05.300Z,19.34
2019-05-02T07:51:02.907Z,19.63
2019-05-02T07:52:03.030Z,19.84
2019-05-02T07:53:04.355Z,20.14
2019-05-02T07:54:03.367Z,20.62
2019-05-02T07:55:06.308Z,20.47
2019-05-02T07:56:03.700Z,21.06
2019-05-02T07:57:03.686Z,21.03
2019-05-02T07:58:06.989Z,21.21
2019-05-02T07:59:04.086Z,21.57
2019-05-02T08:00:04.891Z,21.35
2019-05-02T08:01:07.998Z,21.58
2019-05-02T08:02:04.617Z,21.46
2019-05-02T08:03:05.172Z,21.82
2019-05-02T08:04:11.290Z,22.04
2019-05-02T08:05:05.220Z,22.28
2019-05-02T08:06:05.560Z,22.63
2019-05-02T08:07:05.597Z,22.85
2019-05-02T08:08:05.990Z,23.00
2019-05-02T08:09:07.052Z,23.27
2019-05-02T08:10:06.193Z,23.36
2019-05-02T08:11:06.278Z,23.61
2019-05-02T08:12:06.442Z,23.63
2019-05-02T08:13:06.667Z,23.47
2019-05-02T08:14:06.708Z,23.63
2019-05-02T08:15:07.386Z,23.87
2019-05-02T08:16:07.179Z,23.69
2019-05-02T08:17:16.142Z,23.95
2019-05-02T08:18:07.621Z,23.98
2019-05-02T08:19:07.737Z,24.13
2019-05-02T08:20:13.440Z,24.26
2019-05-02T08:21:07.903Z,24.24
2019-05-02T08:22:13.223Z,24.02
2019-05-02T08:23:07.962Z,24.26
2019-05-02T08:24:08.291Z,24.11
2019-05-02T08:25:10.581Z,24.01
2019-05-02T08:26:08.674Z,23.96
2019-05-02T08:27:08.496Z,23.88
2019-05-02T08:28:10.064Z,24.10
2019-05-02T08:29:08.934Z,23.93
2019-05-02T08:30:09.065Z,23.95
2019-05-02T08:31:13.552Z,23.69
2019-05-02T08:32:09.330Z,23.18
2019-05-02T08:33:09.448Z,23.37
2019-05-02T08:34:14.627Z,23.83
2019-05-02T08:35:09.894Z,23.91
2019-05-02T08:36:10.111Z,23.47
2019-05-02T08:37:10.336Z,23.34
2019-05-02T08:38:12.694Z,23.96
2019-05-02T08:39:10.527Z,24.10
2019-05-02T08:40:12.013Z,24.01
2019-05-02T08:41:10.952Z,24.26
2019-05-02T08:42:11.170Z,24.39
2019-05-02T08:43:11.358Z,24.38
2019-05-02T08:44:11.573Z,24.39
2019-05-02T08:45:11.778Z,24.70
2019-05-02T08:46:14.415Z,24.93
2019-05-02T08:47:18.695Z,25.08
2019-05-02T08:48:12.575Z,25.53
2019-05-02T08:49:14.191Z,25.80
2019-05-02T08:50:12.723Z,25.72
2019-05-02T08:51:12.943Z,26.29
2019-05-02T08:52:13.171Z,26.58
2019-05-02T08:53:14.365Z,26.10
2019-05-02T08:54:13.572Z,26.60
2019-05-02T08:55:13.797Z,26.56
2019-05-02T08:56:16.496Z,26.26
2019-05-02T08:57:14.666Z,26.66
2019-05-02T08:58:15.692Z,26.53
2019-05-02T08:59:14.464Z,26.70
2019-05-02T09:00:15.723Z,26.84
2019-05-02T09:01:15.484Z,27.17
2019-05-02T09:02:15.037Z,26.90
2019-05-02T09:03:15.279Z,26.77
2019-05-02T09:04:17.342Z,26.71
2019-05-02T09:05:15.629Z,26.90
2019-05-02T09:06:22.192Z,27.14
2019-05-02T09:07:16.128Z,27.33
2019-05-02T09:08:16.839Z,27.58
2019-05-02T09:09:16.475Z,27.74
2019-05-02T09:10:16.621Z,27.73
2019-05-02T09:11:16.784Z,27.74
2019-05-02T09:12:19.908Z,28.11
2019-05-02T09:13:23.667Z,28.35
2019-05-02T09:14:17.414Z,27.98
2019-05-02T09:15:17.636Z,27.90
2019-05-02T09:16:23.766Z,27.70
2019-05-02T09:17:18.021Z,27.75
2019-05-02T09:18:18.243Z,27.89
2019-05-02T09:19:21.403Z,27.54
2019-05-02T09:20:20.820Z,27.30
2019-05-02T09:21:18.650Z,27.77
2019-05-02T09:22:18.949Z,27.89
2019-05-02T09:23:19.061Z,28.00
2019-05-02T09:24:23.268Z,28.12
2019-05-02T09:25:19.232Z,28.74
2019-05-02T09:26:33.279Z,29.04
2019-05-02T09:27:19.660Z,28.91
2019-05-02T09:28:22.457Z,28.91
2019-05-02T09:29:22.062Z,28.81
2019-05-02T09:30:22.775Z,28.88
2019-05-02T09:31:22.512Z,28.60
2019-05-02T09:32:24.769Z,28.72
2019-05-02T09:33:22.551Z,29.10
2019-05-02T09:34:22.956Z,29.54
2019-05-02T09:35:22.948Z,30.09
2019-05-02T09:36:22.656Z,30.44
2019-05-02T09:37:22.751Z,30.12
2019-05-02T09:38:22.219Z,29.20
2019-05-02T09:39:22.942Z,28.74
2019-05-02T09:40:22.257Z,28.57
2019-05-02T09:41:22.212Z,28.57
2019-05-02T09:42:21.950Z,28.66
2019-05-02T09:43:22.845Z,28.54
2019-05-02T09:44:23.008Z,28.67
2019-05-02T09:45:22.807Z,28.74
2019-05-02T09:46:22.665Z,28.88
2019-05-02T09:47:27.354Z,29.20
2019-05-02T09:48:26.794Z,29.24
2019-05-02T09:49:23.346Z,29.14
2019-05-02T09:50:30.036Z,28.97
2019-05-02T09:51:23.546Z,29.59
2019-05-02T09:52:23.803Z,29.35
2019-05-02T09:53:25.448Z,28.81
2019-05-02T09:54:24.205Z,28.07
2019-05-02T09:55:24.511Z,27.55
2019-05-02T09:56:24.881Z,27.05
2019-05-02T09:57:24.891Z,26.80
2019-05-02T09:58:25.325Z,27.02
2019-05-02T09:59:30.068Z,26.55
2019-05-02T10:00:26.749Z,26.23
2019-05-02T10:01:26.058Z,26.05
2019-05-02T10:02:26.459Z,25.87
2019-05-02T10:03:26.642Z,25.73
2019-05-02T10:04:26.179Z,25.58
2019-05-02T10:05:26.630Z,25.32
2019-05-02T10:06:26.587Z,25.04
2019-05-02T10:07:26.497Z,24.50
2019-05-02T10:08:29.118Z,24.24
2019-05-02T10:09:27.318Z,24.14
2019-05-02T10:10:27.201Z,24.38
2019-05-02T10:11:27.244Z,24.32
2019-05-02T10:12:27.411Z,24.32
2019-05-02T10:13:27.475Z,24.17
2019-05-02T10:14:27.709Z,24.26
2019-05-02T10:15:28.065Z,23.93
2019-05-02T10:16:28.025Z,23.66
2019-05-02T10:17:28.425Z,23.73
2019-05-02T10:18:30.180Z,24.03
2019-05-02T10:19:28.634Z,23.98
2019-05-02T10:20:34.193Z,23.98
2019-05-02T10:21:28.665Z,24.29
2019-05-02T10:22:33.828Z,24.36
2019-05-02T10:23:29.389Z,24.38
2019-05-02T10:24:29.785Z,24.42
2019-05-02T10:25:30.745Z,24.38
2019-05-02T10:26:29.885Z,24.38
2019-05-02T10:27:32.171Z,24.36
2019-05-02T10:28:31.720Z,24.48
2019-05-02T10:29:32.717Z,24.98
2019-05-02T10:30:32.793Z,24.86
2019-05-02T10:31:37.458Z,24.96
2019-05-02T10:32:32.533Z,24.99
2019-05-02T10:33:37.345Z,24.99
2019-05-02T10:34:32.901Z,25.01
2019-05-02T10:35:37.437Z,24.92
2019-05-02T10:36:32.542Z,25.03
2019-05-02T10:37:38.047Z,25.26
2019-05-02T10:38:32.604Z,25.17
2019-05-02T10:39:36.129Z,25.51
2019-05-02T10:40:32.138Z,25.83
2019-05-02T10:41:39.451Z,26.28
2019-05-02T10:42:32.550Z,26.26
2019-05-02T10:43:32.983Z,25.96
2019-05-02T10:44:36.364Z,25.50
2019-05-02T10:45:32.673Z,25.51
2019-05-02T10:46:37.553Z,25.35
2019-05-02T10:47:36.101Z,25.10
2019-05-02T10:48:33.367Z,24.91
2019-05-02T10:49:33.499Z,24.68
2019-05-02T10:50:34.036Z,24.36
2019-05-02T10:51:33.927Z,24.36
2019-05-02T10:52:34.299Z,24.40
2019-05-02T10:53:33.950Z,24.26
2019-05-02T10:54:37.470Z,24.08
2019-05-02T10:55:34.352Z,24.18
2019-05-02T10:56:34.387Z,24.28
2019-05-02T10:57:34.501Z,24.36
2019-05-02T10:58:35.799Z,24.13
2019-05-02T10:59:35.021Z,24.14
2019-05-02T11:00:35.146Z,23.86
2019-05-02T11:01:35.174Z,23.50
2019-05-02T11:02:36.523Z,23.28
2019-05-02T11:03:38.029Z,22.96
2019-05-02T11:04:35.843Z,22.90
2019-05-02T11:05:37.495Z,22.84
2019-05-02T11:06:41.595Z,22.63
2019-05-02T11:07:36.305Z,22.39
2019-05-02T11:08:36.848Z,22.30
2019-05-02T11:09:36.828Z,22.30
2019-05-02T11:10:37.120Z,22.38
2019-05-02T11:11:36.926Z,22.32
2019-05-02T11:12:44.390Z,22.35
2019-05-02T11:13:37.540Z,22.28
2019-05-02T11:14:37.393Z,22.36
2019-05-02T11:15:37.690Z,22.62
2019-05-02T11:16:38.107Z,22.66
2019-05-02T11:17:37.760Z,22.70
2019-05-02T11:18:42.338Z,22.87
2019-05-02T11:19:38.481Z,22.68
2019-05-02T11:20:38.473Z,22.63
2019-05-02T11:21:46.761Z,22.81
2019-05-02T11:22:38.742Z,22.84
2019-05-02T11:23:39.136Z,22.78
2019-05-02T11:24:39.307Z,22.81
2019-05-02T11:25:39.436Z,22.80
2019-05-02T11:26:40.479Z,22.93
2019-05-02T11:27:41.885Z,22.78
2019-05-02T11:28:41.575Z,22.85
2019-05-02T11:29:40.116Z,22.80
2019-05-02T11:30:41.993Z,22.63
2019-05-02T11:31:42.603Z,22.72
2019-05-02T11:32:41.710Z,22.73
2019-05-02T11:33:41.860Z,22.88
2019-05-02T11:34:42.069Z,23.13
2019-05-02T11:35:48.787Z,23.08
2019-05-02T11:36:41.994Z,23.32
2019-05-02T11:37:42.258Z,23.47
2019-05-02T11:38:45.710Z,23.99
2019-05-02T11:39:46.588Z,24.06
2019-05-02T11:40:42.615Z,24.02
2019-05-02T11:41:42.292Z,24.10
2019-05-02T11:42:42.080Z,24.10
2019-05-02T11:43:44.859Z,24.01
2019-05-02T11:44:42.270Z,24.13
2019-05-02T11:45:42.547Z,24.16
2019-05-02T11:46:46.736Z,24.35
2019-05-02T11:47:42.947Z,24.68
2019-05-02T11:48:55.567Z,24.76
2019-05-02T11:49:46.802Z,24.84
2019-05-02T11:50:43.464Z,24.89
2019-05-02T11:51:47.044Z,24.96
2019-05-02T11:52:43.655Z,24.86
2019-05-02T11:53:44.580Z,24.99
2019-05-02T11:54:48.334Z,24.60
2019-05-02T11:55:44.585Z,24.81
2019-05-02T11:56:48.961Z,24.69
2019-05-02T11:57:46.254Z,24.95
2019-05-02T11:58:48.152Z,24.96
2019-05-02T11:59:45.442Z,24.84
2019-05-02T12:00:49.660Z,24.51
2019-05-02T12:01:56.777Z,24.17
2019-05-02T12:02:49.131Z,24.18
2019-05-02T12:03:46.017Z,24.29
2019-05-02T12:04:51.623Z,24.10
2019-05-02T12:05:46.331Z,24.11
2019-05-02T12:06:49.896Z,23.98
2019-05-02T12:07:46.647Z,24.03
2019-05-02T12:08:49.389Z,24.08
2019-05-02T12:09:55.139Z,23.93
2019-05-02T12:10:47.517Z,24.01
2019-05-02T12:11:51.479Z,23.87
2019-05-02T12:12:49.260Z,23.50
2019-05-02T12:13:52.756Z,23.59
2019-05-02T12:14:48.182Z,23.27
2019-05-02T12:15:48.041Z,23.40
2019-05-02T12:16:48.133Z,23.47
2019-05-02T12:17:48.475Z,23.44
2019-05-02T12:18:48.663Z,23.63
2019-05-02T12:19:48.812Z,23.59
2019-05-02T12:20:48.903Z,23.58
2019-05-02T12:21:48.989Z,23.74
2019-05-02T12:22:48.957Z,23.69
2019-05-02T12:23:48.933Z,23.65
2019-05-02T12:24:49.122Z,23.58
2019-05-02T12:25:49.350Z,23.55
2019-05-02T12:26:49.978Z,23.44
2019-05-02T12:27:49.742Z,23.28
2019-05-02T12:28:49.892Z,23.15
2019-05-02T12:29:57.672Z,23.00
2019-05-02T12:30:51.946Z,22.99
2019-05-02T12:31:54.777Z,22.98
2019-05-02T12:32:50.510Z,22.70
2019-05-02T12:33:52.653Z,22.69
2019-05-02T12:34:52.595Z,22.66
2019-05-02T12:35:52.531Z,22.59
2019-05-02T12:36:52.288Z,22.41
2019-05-02T12:37:55.100Z,22.33
2019-05-02T12:38:52.875Z,22.26
2019-05-02T12:39:53.793Z,22.20
2019-05-02T12:40:53.041Z,22.00
2019-05-02T12:41:53.655Z,21.98
2019-05-02T12:42:52.608Z,21.99
2019-05-02T12:43:52.590Z,22.04
2019-05-02T12:44:53.290Z,21.82
2019-05-02T12:45:53.010Z,21.77
2019-05-02T12:46:55.660Z,21.82
2019-05-02T12:47:53.185Z,21.79
2019-05-02T12:48:55.418Z,21.67
2019-05-02T12:49:53.774Z,21.83
2019-05-02T12:50:56.084Z,21.72
2019-05-02T12:51:53.914Z,21.67
2019-05-02T12:52:55.653Z,21.54
2019-05-02T12:53:54.220Z,21.50
2019-05-02T12:54:54.452Z,21.51
2019-05-02T12:55:54.521Z,21.35
2019-05-02T12:56:54.788Z,21.42
2019-05-02T12:57:54.891Z,21.60
2019-05-02T12:58:55.095Z,21.58
2019-05-02T12:59:55.278Z,21.83
2019-05-02T13:00:55.489Z,21.91
2019-05-02T13:01:55.681Z,21.98
2019-05-02T13:02:55.879Z,22.07
2019-05-02T13:03:56.101Z,21.98
2019-05-02T13:04:56.396Z,21.98